sensor_id;sensor_type;location;lat;lon;timestamp;temperature;humidity
44886;DHT22;36669;51.428;21.162;2022-12-20T00:01:24;-0.80;99.90
44886;DHT22;36669;51.428;21.162;2022-12-20T00:03:50;-0.80;99.90
44886;DHT22;36669;51.428;21.162;2022-12-20T00:06:17;-0.80;99.90
44886;DHT22;36669;51.428;21.162;2022-12-20T00:08:43;-0.70;99.90
44886;DHT22;36669;51.428;21.162;2022-12-20T00:11:10;-0.70;99.90
44886;DHT22;36669;51.428;21.162;2022-12-20T00:13:36;-0.60;99.90
44886;DHT22;36669;51.428;21.162;2022-12-20T00:16:14;-0.60;99.90
44886;DHT22;36669;51.428;21.162;2022-12-20T00:18:41;-0.60;99.90
44886;DHT22;36669;51.428;21.162;2022-12-20T00:21:09;-0.60;99.90
44886;DHT22;36669;51.428;21.162;2022-12-20T00:23:35;-0.50;99.90
44886;DHT22;36669;51.428;21.162;2022-12-20T00:26:22;-0.50;99.90
44886;DHT22;36669;51.428;21.162;2022-12-20T00:28:48;-0.50;99.90
44886;DHT22;36669;51.428;21.162;2022-12-20T00:31:17;-0.40;99.90
44886;DHT22;36669;51.428;21.162;2022-12-20T00:33:48;-0.40;99.90
44886;DHT22;36669;51.428;21.162;2022-12-20T00:36:16;-0.40;99.90
44886;DHT22;36669;51.428;21.162;2022-12-20T00:38:44;-0.40;99.90
44886;DHT22;36669;51.428;21.162;2022-12-20T00:41:19;-0.40;99.90
44886;DHT22;36669;51.428;21.162;2022-12-20T00:43:46;-0.40;99.90
44886;DHT22;36669;51.428;21.162;2022-12-20T00:46:13;-0.40;99.90
44886;DHT22;36669;51.428;21.162;2022-12-20T00:48:39;-0.40;99.90
44886;DHT22;36669;51.428;21.162;2022-12-20T00:51:11;-0.30;99.90
44886;DHT22;36669;51.428;21.162;2022-12-20T00:53:37;-0.30;99.90
44886;DHT22;36669;51.428;21.162;2022-12-20T00:56:04;-0.30;99.90
44886;DHT22;36669;51.428;21.162;2022-12-20T00:58:36;-0.30;99.90
44886;DHT22;36669;51.428;21.162;2022-12-20T01:01:03;-0.20;99.90
44886;DHT22;36669;51.428;21.162;2022-12-20T01:03:28;-0.30;99.90
44886;DHT22;36669;51.428;21.162;2022-12-20T01:06:01;-0.30;99.90
44886;DHT22;36669;51.428;21.162;2022-12-20T01:08:29;-0.20;99.90
44886;DHT22;36669;51.428;21.162;2022-12-20T01:11:03;-0.20;99.90
44886;DHT22;36669;51.428;21.162;2022-12-20T01:13:30;-0.20;99.90
44886;DHT22;36669;51.428;21.162;2022-12-20T01:15:55;-0.30;99.90
44886;DHT22;36669;51.428;21.162;2022-12-20T01:18:21;-0.30;99.90
44886;DHT22;36669;51.428;21.162;2022-12-20T01:20:47;-0.30;99.90
44886;DHT22;36669;51.428;21.162;2022-12-20T01:23:13;-0.30;99.90
44886;DHT22;36669;51.428;21.162;2022-12-20T01:25:38;-0.30;99.90
44886;DHT22;36669;51.428;21.162;2022-12-20T01:28:04;-0.30;99.90
44886;DHT22;36669;51.428;21.162;2022-12-20T01:30:30;-0.30;99.90
44886;DHT22;36669;51.428;21.162;2022-12-20T01:32:55;-0.30;99.90
44886;DHT22;36669;51.428;21.162;2022-12-20T01:35:21;-0.20;99.90
44886;DHT22;36669;51.428;21.162;2022-12-20T01:37:47;-0.30;99.90
44886;DHT22;36669;51.428;21.162;2022-12-20T01:40:13;-0.30;99.90
44886;DHT22;36669;51.428;21.162;2022-12-20T01:42:38;-0.20;99.90
44886;DHT22;36669;51.428;21.162;2022-12-20T01:45:07;-0.20;99.90
44886;DHT22;36669;51.428;21.162;2022-12-20T01:47:34;-0.20;99.90
44886;DHT22;36669;51.428;21.162;2022-12-20T01:50:02;-0.20;99.90
44886;DHT22;36669;51.428;21.162;2022-12-20T01:52:38;-0.20;99.90
44886;DHT22;36669;51.428;21.162;2022-12-20T01:55:12;-0.20;99.90
44886;DHT22;36669;51.428;21.162;2022-12-20T02:00:12;-0.20;99.90
44886;DHT22;36669;51.428;21.162;2022-12-20T02:02:39;-0.10;99.90
44886;DHT22;36669;51.428;21.162;2022-12-20T02:05:05;-0.10;99.90
44886;DHT22;36669;51.428;21.162;2022-12-20T02:07:33;-0.10;99.90
44886;DHT22;36669;51.428;21.162;2022-12-20T02:10:01;0.00;99.90
44886;DHT22;36669;51.428;21.162;2022-12-20T02:12:47;0.00;99.90
44886;DHT22;36669;51.428;21.162;2022-12-20T02:20:49;0.10;99.90
44886;DHT22;36669;51.428;21.162;2022-12-20T02:26:45;0.10;99.90
44886;DHT22;36669;51.428;21.162;2022-12-20T02:32:11;0.10;99.90
44886;DHT22;36669;51.428;21.162;2022-12-20T02:34:39;0.20;99.90
44886;DHT22;36669;51.428;21.162;2022-12-20T02:37:06;0.20;99.90
44886;DHT22;36669;51.428;21.162;2022-12-20T02:39:32;0.20;99.90
44886;DHT22;36669;51.428;21.162;2022-12-20T02:44:36;0.30;99.90
44886;DHT22;36669;51.428;21.162;2022-12-20T02:47:33;0.30;99.90
44886;DHT22;36669;51.428;21.162;2022-12-20T02:50:02;0.30;99.90
44886;DHT22;36669;51.428;21.162;2022-12-20T02:52:29;0.40;99.90
44886;DHT22;36669;51.428;21.162;2022-12-20T02:54:57;0.50;99.90
44886;DHT22;36669;51.428;21.162;2022-12-20T03:02:29;0.50;99.90
44886;DHT22;36669;51.428;21.162;2022-12-20T03:05:16;0.60;99.90
44886;DHT22;36669;51.428;21.162;2022-12-20T03:07:42;0.60;99.90
44886;DHT22;36669;51.428;21.162;2022-12-20T03:10:08;0.60;99.90
44886;DHT22;36669;51.428;21.162;2022-12-20T03:12:34;0.60;99.90
44886;DHT22;36669;51.428;21.162;2022-12-20T03:15:00;0.70;99.90
44886;DHT22;36669;51.428;21.162;2022-12-20T03:17:26;0.70;99.90
44886;DHT22;36669;51.428;21.162;2022-12-20T03:19:51;0.70;99.90
44886;DHT22;36669;51.428;21.162;2022-12-20T03:22:17;0.70;99.90
44886;DHT22;36669;51.428;21.162;2022-12-20T03:24:42;0.70;99.90
44886;DHT22;36669;51.428;21.162;2022-12-20T03:27:08;0.70;99.90
44886;DHT22;36669;51.428;21.162;2022-12-20T03:29:33;0.70;99.90
44886;DHT22;36669;51.428;21.162;2022-12-20T03:31:59;0.70;99.90
44886;DHT22;36669;51.428;21.162;2022-12-20T03:34:25;0.80;99.90
44886;DHT22;36669;51.428;21.162;2022-12-20T03:36:50;0.80;99.90
44886;DHT22;36669;51.428;21.162;2022-12-20T03:39:16;0.80;99.90
44886;DHT22;36669;51.428;21.162;2022-12-20T03:41:41;0.80;99.90
44886;DHT22;36669;51.428;21.162;2022-12-20T03:44:07;0.80;99.90
44886;DHT22;36669;51.428;21.162;2022-12-20T03:46:33;0.80;99.90
44886;DHT22;36669;51.428;21.162;2022-12-20T03:48:59;0.90;99.90
44886;DHT22;36669;51.428;21.162;2022-12-20T03:51:24;0.80;99.90
44886;DHT22;36669;51.428;21.162;2022-12-20T03:53:50;0.90;99.90
44886;DHT22;36669;51.428;21.162;2022-12-20T03:56:15;0.90;99.90
44886;DHT22;36669;51.428;21.162;2022-12-20T03:58:41;0.90;99.90
44886;DHT22;36669;51.428;21.162;2022-12-20T04:01:25;1.00;99.90
44886;DHT22;36669;51.428;21.162;2022-12-20T04:03:51;1.00;99.90
44886;DHT22;36669;51.428;21.162;2022-12-20T04:06:17;1.00;99.90
44886;DHT22;36669;51.428;21.162;2022-12-20T04:08:43;1.10;99.90
44886;DHT22;36669;51.428;21.162;2022-12-20T04:11:09;1.10;99.90
44886;DHT22;36669;51.428;21.162;2022-12-20T04:13:46;1.10;99.90
44886;DHT22;36669;51.428;21.162;2022-12-20T04:16:16;1.10;99.90
44886;DHT22;36669;51.428;21.162;2022-12-20T04:18:43;1.20;99.90
44886;DHT22;36669;51.428;21.162;2022-12-20T04:21:09;1.20;99.90
44886;DHT22;36669;51.428;21.162;2022-12-20T04:23:36;1.20;99.90
44886;DHT22;36669;51.428;21.162;2022-12-20T04:26:03;1.20;99.90
44886;DHT22;36669;51.428;21.162;2022-12-20T04:28:29;1.30;99.90
44886;DHT22;36669;51.428;21.162;2022-12-20T04:30:55;1.30;99.90
44886;DHT22;36669;51.428;21.162;2022-12-20T04:33:21;1.30;99.90
44886;DHT22;36669;51.428;21.162;2022-12-20T04:35:47;1.30;99.90
44886;DHT22;36669;51.428;21.162;2022-12-20T04:38:13;1.30;99.90
44886;DHT22;36669;51.428;21.162;2022-12-20T04:40:39;1.30;99.90
44886;DHT22;36669;51.428;21.162;2022-12-20T04:43:05;1.30;99.90
44886;DHT22;36669;51.428;21.162;2022-12-20T04:45:30;1.30;99.90
44886;DHT22;36669;51.428;21.162;2022-12-20T04:47:56;1.30;99.90
44886;DHT22;36669;51.428;21.162;2022-12-20T04:50:22;1.40;99.90
44886;DHT22;36669;51.428;21.162;2022-12-20T04:52:47;1.30;99.90
44886;DHT22;36669;51.428;21.162;2022-12-20T04:55:36;1.30;99.90
44886;DHT22;36669;51.428;21.162;2022-12-20T04:58:02;1.40;99.90
44886;DHT22;36669;51.428;21.162;2022-12-20T05:00:27;1.40;99.90
44886;DHT22;36669;51.428;21.162;2022-12-20T05:02:53;1.40;99.90
44886;DHT22;36669;51.428;21.162;2022-12-20T05:05:18;1.40;99.90
44886;DHT22;36669;51.428;21.162;2022-12-20T05:07:44;1.40;99.90
44886;DHT22;36669;51.428;21.162;2022-12-20T05:10:10;1.50;99.90
44886;DHT22;36669;51.428;21.162;2022-12-20T05:12:36;1.40;99.90
44886;DHT22;36669;51.428;21.162;2022-12-20T05:15:01;1.50;99.90
44886;DHT22;36669;51.428;21.162;2022-12-20T05:17:27;1.50;99.90
44886;DHT22;36669;51.428;21.162;2022-12-20T05:19:52;1.50;99.90
44886;DHT22;36669;51.428;21.162;2022-12-20T05:22:18;1.60;99.90
44886;DHT22;36669;51.428;21.162;2022-12-20T05:25:02;1.60;99.90
44886;DHT22;36669;51.428;21.162;2022-12-20T05:27:46;1.60;99.90
44886;DHT22;36669;51.428;21.162;2022-12-20T05:30:12;1.70;99.90
44886;DHT22;36669;51.428;21.162;2022-12-20T05:32:37;1.70;99.90
44886;DHT22;36669;51.428;21.162;2022-12-20T05:35:03;1.70;99.90
44886;DHT22;36669;51.428;21.162;2022-12-20T05:37:29;1.70;99.90
44886;DHT22;36669;51.428;21.162;2022-12-20T05:39:55;1.80;99.90
44886;DHT22;36669;51.428;21.162;2022-12-20T05:42:20;1.80;99.90
44886;DHT22;36669;51.428;21.162;2022-12-20T05:44:46;1.80;99.90
44886;DHT22;36669;51.428;21.162;2022-12-20T05:47:11;1.80;99.90
44886;DHT22;36669;51.428;21.162;2022-12-20T05:49:37;1.80;99.90
44886;DHT22;36669;51.428;21.162;2022-12-20T05:52:03;1.80;99.90
44886;DHT22;36669;51.428;21.162;2022-12-20T05:54:28;1.90;99.90
44886;DHT22;36669;51.428;21.162;2022-12-20T05:56:54;1.90;99.90
44886;DHT22;36669;51.428;21.162;2022-12-20T05:59:19;2.00;99.90
44886;DHT22;36669;51.428;21.162;2022-12-20T06:01:45;2.00;99.90
44886;DHT22;36669;51.428;21.162;2022-12-20T06:04:11;1.90;99.90
44886;DHT22;36669;51.428;21.162;2022-12-20T06:06:36;1.90;99.90
44886;DHT22;36669;51.428;21.162;2022-12-20T06:09:02;1.90;99.90
44886;DHT22;36669;51.428;21.162;2022-12-20T06:11:27;1.80;99.90
44886;DHT22;36669;51.428;21.162;2022-12-20T06:13:53;1.90;99.90
44886;DHT22;36669;51.428;21.162;2022-12-20T06:16:19;1.90;99.90
44886;DHT22;36669;51.428;21.162;2022-12-20T06:18:46;2.00;99.90
44886;DHT22;36669;51.428;21.162;2022-12-20T06:21:11;2.00;99.90
44886;DHT22;36669;51.428;21.162;2022-12-20T06:23:37;2.00;99.90
44886;DHT22;36669;51.428;21.162;2022-12-20T06:26:04;1.90;99.90
44886;DHT22;36669;51.428;21.162;2022-12-20T06:28:29;2.00;99.90
44886;DHT22;36669;51.428;21.162;2022-12-20T06:30:56;1.90;99.90
44886;DHT22;36669;51.428;21.162;2022-12-20T06:33:22;1.90;99.90
44886;DHT22;36669;51.428;21.162;2022-12-20T06:35:50;2.00;99.90
44886;DHT22;36669;51.428;21.162;2022-12-20T06:38:16;1.90;99.90
44886;DHT22;36669;51.428;21.162;2022-12-20T06:40:42;2.00;99.90
44886;DHT22;36669;51.428;21.162;2022-12-20T06:43:08;2.00;99.90
44886;DHT22;36669;51.428;21.162;2022-12-20T06:45:34;2.00;99.90
44886;DHT22;36669;51.428;21.162;2022-12-20T06:48:00;2.00;99.90
44886;DHT22;36669;51.428;21.162;2022-12-20T06:50:25;1.90;99.90
44886;DHT22;36669;51.428;21.162;2022-12-20T06:52:52;1.90;99.90
44886;DHT22;36669;51.428;21.162;2022-12-20T06:55:17;2.00;99.90
44886;DHT22;36669;51.428;21.162;2022-12-20T06:57:43;2.00;99.90
44886;DHT22;36669;51.428;21.162;2022-12-20T07:00:09;2.00;99.90
44886;DHT22;36669;51.428;21.162;2022-12-20T07:02:37;2.00;99.90
44886;DHT22;36669;51.428;21.162;2022-12-20T07:05:03;2.00;99.90
44886;DHT22;36669;51.428;21.162;2022-12-20T07:07:29;2.00;99.90
44886;DHT22;36669;51.428;21.162;2022-12-20T07:09:54;2.00;99.90
44886;DHT22;36669;51.428;21.162;2022-12-20T07:12:21;2.00;99.90
44886;DHT22;36669;51.428;21.162;2022-12-20T07:14:48;2.00;99.90
44886;DHT22;36669;51.428;21.162;2022-12-20T07:17:13;2.00;99.90
44886;DHT22;36669;51.428;21.162;2022-12-20T07:19:39;2.10;99.90
44886;DHT22;36669;51.428;21.162;2022-12-20T07:22:06;2.10;99.90
44886;DHT22;36669;51.428;21.162;2022-12-20T07:24:32;2.10;99.90
44886;DHT22;36669;51.428;21.162;2022-12-20T07:26:58;2.10;99.90
44886;DHT22;36669;51.428;21.162;2022-12-20T07:29:24;2.10;99.90
44886;DHT22;36669;51.428;21.162;2022-12-20T07:31:50;2.00;99.90
44886;DHT22;36669;51.428;21.162;2022-12-20T07:34:16;2.10;99.90
44886;DHT22;36669;51.428;21.162;2022-12-20T07:36:41;2.10;99.90
44886;DHT22;36669;51.428;21.162;2022-12-20T07:39:08;2.10;99.90
44886;DHT22;36669;51.428;21.162;2022-12-20T07:41:34;2.10;99.90
44886;DHT22;36669;51.428;21.162;2022-12-20T07:43:59;2.10;99.90
44886;DHT22;36669;51.428;21.162;2022-12-20T07:46:25;2.20;99.90
44886;DHT22;36669;51.428;21.162;2022-12-20T07:48:51;2.20;99.90
44886;DHT22;36669;51.428;21.162;2022-12-20T07:51:29;2.20;99.90
44886;DHT22;36669;51.428;21.162;2022-12-20T07:54:05;2.20;99.90
44886;DHT22;36669;51.428;21.162;2022-12-20T07:56:35;2.30;99.90
44886;DHT22;36669;51.428;21.162;2022-12-20T07:59:04;2.30;99.90
44886;DHT22;36669;51.428;21.162;2022-12-20T08:01:30;2.30;99.90
44886;DHT22;36669;51.428;21.162;2022-12-20T08:04:01;2.30;99.90
44886;DHT22;36669;51.428;21.162;2022-12-20T08:06:28;2.30;99.90
44886;DHT22;36669;51.428;21.162;2022-12-20T08:08:57;2.40;99.90
44886;DHT22;36669;51.428;21.162;2022-12-20T08:11:25;2.40;99.90
44886;DHT22;36669;51.428;21.162;2022-12-20T08:13:52;2.40;99.90
44886;DHT22;36669;51.428;21.162;2022-12-20T08:16:17;2.50;99.90
44886;DHT22;36669;51.428;21.162;2022-12-20T08:18:43;2.50;99.90
44886;DHT22;36669;51.428;21.162;2022-12-20T08:21:09;2.50;99.90
44886;DHT22;36669;51.428;21.162;2022-12-20T08:23:37;2.60;99.90
44886;DHT22;36669;51.428;21.162;2022-12-20T08:26:03;2.60;99.90
44886;DHT22;36669;51.428;21.162;2022-12-20T08:28:28;2.70;99.90
44886;DHT22;36669;51.428;21.162;2022-12-20T08:31:00;2.70;99.90
44886;DHT22;36669;51.428;21.162;2022-12-20T08:33:26;2.70;99.90
44886;DHT22;36669;51.428;21.162;2022-12-20T08:36:03;2.80;99.90
44886;DHT22;36669;51.428;21.162;2022-12-20T08:38:29;2.80;99.90
44886;DHT22;36669;51.428;21.162;2022-12-20T08:41:06;2.90;99.90
44886;DHT22;36669;51.428;21.162;2022-12-20T08:43:32;2.90;99.90
44886;DHT22;36669;51.428;21.162;2022-12-20T08:45:58;2.90;99.90
44886;DHT22;36669;51.428;21.162;2022-12-20T08:48:25;3.00;99.90
44886;DHT22;36669;51.428;21.162;2022-12-20T08:50:59;2.90;99.90
44886;DHT22;36669;51.428;21.162;2022-12-20T08:53:26;3.00;99.90
44886;DHT22;36669;51.428;21.162;2022-12-20T08:55:52;3.00;99.90
44886;DHT22;36669;51.428;21.162;2022-12-20T08:58:19;3.00;99.90
44886;DHT22;36669;51.428;21.162;2022-12-20T09:00:44;3.00;99.90
44886;DHT22;36669;51.428;21.162;2022-12-20T09:03:11;3.10;99.90
44886;DHT22;36669;51.428;21.162;2022-12-20T09:05:47;3.00;99.90
44886;DHT22;36669;51.428;21.162;2022-12-20T09:08:14;3.00;99.90
44886;DHT22;36669;51.428;21.162;2022-12-20T09:10:40;3.00;99.90
44886;DHT22;36669;51.428;21.162;2022-12-20T09:13:06;3.00;99.90
44886;DHT22;36669;51.428;21.162;2022-12-20T09:15:34;3.00;99.90
44886;DHT22;36669;51.428;21.162;2022-12-20T09:17:59;3.00;99.90
44886;DHT22;36669;51.428;21.162;2022-12-20T09:20:25;3.00;99.90
44886;DHT22;36669;51.428;21.162;2022-12-20T09:22:50;3.00;99.90
44886;DHT22;36669;51.428;21.162;2022-12-20T09:25:16;3.00;99.90
44886;DHT22;36669;51.428;21.162;2022-12-20T09:27:41;3.00;99.90
44886;DHT22;36669;51.428;21.162;2022-12-20T09:30:08;3.00;99.90
44886;DHT22;36669;51.428;21.162;2022-12-20T09:32:34;2.90;99.90
44886;DHT22;36669;51.428;21.162;2022-12-20T09:35:00;2.90;99.90
44886;DHT22;36669;51.428;21.162;2022-12-20T09:37:29;2.90;99.90
44886;DHT22;36669;51.428;21.162;2022-12-20T09:39:55;3.00;99.90
44886;DHT22;36669;51.428;21.162;2022-12-20T09:42:25;3.00;99.90
44886;DHT22;36669;51.428;21.162;2022-12-20T09:44:53;3.10;99.90
44886;DHT22;36669;51.428;21.162;2022-12-20T09:47:22;3.10;99.90
44886;DHT22;36669;51.428;21.162;2022-12-20T09:49:50;3.20;99.90
44886;DHT22;36669;51.428;21.162;2022-12-20T09:55:00;3.30;99.90
44886;DHT22;36669;51.428;21.162;2022-12-20T10:00:19;3.40;99.90
44886;DHT22;36669;51.428;21.162;2022-12-20T10:02:46;3.40;99.90
44886;DHT22;36669;51.428;21.162;2022-12-20T10:05:19;3.50;99.90
44886;DHT22;36669;51.428;21.162;2022-12-20T10:07:54;3.40;99.90
44886;DHT22;36669;51.428;21.162;2022-12-20T10:13:47;3.50;99.90
44886;DHT22;36669;51.428;21.162;2022-12-20T10:16:50;3.50;99.90
44886;DHT22;36669;51.428;21.162;2022-12-20T10:22:53;3.50;99.90
44886;DHT22;36669;51.428;21.162;2022-12-20T10:25:26;3.50;99.90
44886;DHT22;36669;51.428;21.162;2022-12-20T10:27:55;3.50;99.90
44886;DHT22;36669;51.428;21.162;2022-12-20T10:30:24;3.50;99.90
44886;DHT22;36669;51.428;21.162;2022-12-20T10:32:54;3.40;99.90
44886;DHT22;36669;51.428;21.162;2022-12-20T10:35:38;3.40;99.90
44886;DHT22;36669;51.428;21.162;2022-12-20T10:38:10;3.40;99.90
44886;DHT22;36669;51.428;21.162;2022-12-20T10:43:17;3.50;99.90
44886;DHT22;36669;51.428;21.162;2022-12-20T10:46:06;3.60;99.90
44886;DHT22;36669;51.428;21.162;2022-12-20T10:48:38;3.60;99.90
44886;DHT22;36669;51.428;21.162;2022-12-20T10:53:34;3.60;99.90
44886;DHT22;36669;51.428;21.162;2022-12-20T10:56:27;3.70;99.90
44886;DHT22;36669;51.428;21.162;2022-12-20T10:59:02;3.70;99.90
44886;DHT22;36669;51.428;21.162;2022-12-20T11:01:31;3.70;99.90
44886;DHT22;36669;51.428;21.162;2022-12-20T11:04:01;3.60;99.90
44886;DHT22;36669;51.428;21.162;2022-12-20T11:09:20;3.70;99.90
44886;DHT22;36669;51.428;21.162;2022-12-20T11:12:14;3.70;99.90
44886;DHT22;36669;51.428;21.162;2022-12-20T11:14:42;3.70;99.90
44886;DHT22;36669;51.428;21.162;2022-12-20T11:17:35;3.90;99.90
44886;DHT22;36669;51.428;21.162;2022-12-20T11:20:31;4.30;99.90
44886;DHT22;36669;51.428;21.162;2022-12-20T11:23:40;4.60;99.90
44886;DHT22;36669;51.428;21.162;2022-12-20T11:31:39;5.20;99.90
44886;DHT22;36669;51.428;21.162;2022-12-20T11:45:45;5.00;99.90
44886;DHT22;36669;51.428;21.162;2022-12-20T11:51:11;5.00;99.90
44886;DHT22;36669;51.428;21.162;2022-12-20T11:56:20;4.90;99.90
44886;DHT22;36669;51.428;21.162;2022-12-20T11:58:50;5.00;99.90
44886;DHT22;36669;51.428;21.162;2022-12-20T12:01:34;5.00;99.90
44886;DHT22;36669;51.428;21.162;2022-12-20T12:06:44;5.00;99.90
44886;DHT22;36669;51.428;21.162;2022-12-20T12:09:35;4.90;99.90
44886;DHT22;36669;51.428;21.162;2022-12-20T12:12:33;4.70;99.90
44886;DHT22;36669;51.428;21.162;2022-12-20T12:15:25;4.60;99.90
44886;DHT22;36669;51.428;21.162;2022-12-20T12:18:00;4.60;99.90
44886;DHT22;36669;51.428;21.162;2022-12-20T12:26:35;4.20;99.90
44886;DHT22;36669;51.428;21.162;2022-12-20T12:29:14;4.00;99.90
44886;DHT22;36669;51.428;21.162;2022-12-20T12:31:44;4.00;99.90
44886;DHT22;36669;51.428;21.162;2022-12-20T12:34:37;4.00;99.90
44886;DHT22;36669;51.428;21.162;2022-12-20T12:45:48;3.90;99.90
44886;DHT22;36669;51.428;21.162;2022-12-20T12:48:34;3.90;99.90
44886;DHT22;36669;51.428;21.162;2022-12-20T12:51:02;3.90;99.90
44886;DHT22;36669;51.428;21.162;2022-12-20T12:59:09;3.70;99.90
44886;DHT22;36669;51.428;21.162;2022-12-20T13:11:51;3.60;99.90
44886;DHT22;36669;51.428;21.162;2022-12-20T13:16:43;3.60;99.90
44886;DHT22;36669;51.428;21.162;2022-12-20T13:19:15;3.60;99.90
44886;DHT22;36669;51.428;21.162;2022-12-20T13:40:47;3.50;99.90
44886;DHT22;36669;51.428;21.162;2022-12-20T13:45:52;3.50;99.90
44886;DHT22;36669;51.428;21.162;2022-12-20T13:48:24;3.50;99.90
44886;DHT22;36669;51.428;21.162;2022-12-20T13:50:55;3.50;99.90
44886;DHT22;36669;51.428;21.162;2022-12-20T13:53:26;3.40;99.90
44886;DHT22;36669;51.428;21.162;2022-12-20T13:55:53;3.40;99.90
44886;DHT22;36669;51.428;21.162;2022-12-20T13:58:27;3.40;99.90
44886;DHT22;36669;51.428;21.162;2022-12-20T14:01:03;3.40;99.90
44886;DHT22;36669;51.428;21.162;2022-12-20T14:03:30;3.30;99.90
44886;DHT22;36669;51.428;21.162;2022-12-20T14:06:03;3.30;99.90
44886;DHT22;36669;51.428;21.162;2022-12-20T14:08:36;3.30;99.90
44886;DHT22;36669;51.428;21.162;2022-12-20T14:11:10;3.20;99.90
44886;DHT22;36669;51.428;21.162;2022-12-20T14:13:36;3.20;99.90
44886;DHT22;36669;51.428;21.162;2022-12-20T14:16:16;3.10;99.90
44886;DHT22;36669;51.428;21.162;2022-12-20T14:19:03;3.10;99.90
44886;DHT22;36669;51.428;21.162;2022-12-20T14:21:29;3.10;99.90
44886;DHT22;36669;51.428;21.162;2022-12-20T14:23:57;3.00;99.90
44886;DHT22;36669;51.428;21.162;2022-12-20T14:26:27;3.00;99.90
44886;DHT22;36669;51.428;21.162;2022-12-20T14:28:55;3.00;99.90
44886;DHT22;36669;51.428;21.162;2022-12-20T14:33:52;3.00;99.90
44886;DHT22;36669;51.428;21.162;2022-12-20T14:36:25;3.00;99.90
44886;DHT22;36669;51.428;21.162;2022-12-20T14:38:51;3.00;99.90
44886;DHT22;36669;51.428;21.162;2022-12-20T14:44:01;3.00;99.90
44886;DHT22;36669;51.428;21.162;2022-12-20T14:46:28;3.10;99.90
44886;DHT22;36669;51.428;21.162;2022-12-20T14:49:26;3.00;99.90
44886;DHT22;36669;51.428;21.162;2022-12-20T15:13:36;3.00;99.90
44886;DHT22;36669;51.428;21.162;2022-12-20T15:16:23;3.00;99.90
44886;DHT22;36669;51.428;21.162;2022-12-20T15:19:00;2.90;99.90
44886;DHT22;36669;51.428;21.162;2022-12-20T15:21:40;2.90;99.90
44886;DHT22;36669;51.428;21.162;2022-12-20T15:24:15;2.90;99.90
44886;DHT22;36669;51.428;21.162;2022-12-20T15:26:43;3.00;99.90
44886;DHT22;36669;51.428;21.162;2022-12-20T15:29:19;2.90;99.90
44886;DHT22;36669;51.428;21.162;2022-12-20T15:31:45;2.90;99.90
44886;DHT22;36669;51.428;21.162;2022-12-20T15:34:27;2.90;99.90
44886;DHT22;36669;51.428;21.162;2022-12-20T15:36:53;2.80;99.90
44886;DHT22;36669;51.428;21.162;2022-12-20T15:39:20;2.80;99.90
44886;DHT22;36669;51.428;21.162;2022-12-20T15:41:48;2.80;99.90
44886;DHT22;36669;51.428;21.162;2022-12-20T15:44:25;2.80;99.90
44886;DHT22;36669;51.428;21.162;2022-12-20T15:46:52;2.80;99.90
44886;DHT22;36669;51.428;21.162;2022-12-20T15:49:22;2.80;99.90
44886;DHT22;36669;51.428;21.162;2022-12-20T15:51:50;2.80;99.90
44886;DHT22;36669;51.428;21.162;2022-12-20T15:54:26;2.80;99.90
44886;DHT22;36669;51.428;21.162;2022-12-20T15:56:53;2.80;99.90
44886;DHT22;36669;51.428;21.162;2022-12-20T15:59:18;2.90;99.90
44886;DHT22;36669;51.428;21.162;2022-12-20T16:01:44;2.90;99.90
44886;DHT22;36669;51.428;21.162;2022-12-20T16:04:20;2.90;99.90
44886;DHT22;36669;51.428;21.162;2022-12-20T16:06:48;2.80;99.90
44886;DHT22;36669;51.428;21.162;2022-12-20T16:09:14;2.90;99.90
44886;DHT22;36669;51.428;21.162;2022-12-20T16:11:40;2.80;99.90
44886;DHT22;36669;51.428;21.162;2022-12-20T16:14:14;2.80;99.90
44886;DHT22;36669;51.428;21.162;2022-12-20T16:16:40;2.90;99.90
44886;DHT22;36669;51.428;21.162;2022-12-20T16:19:06;2.90;99.90
44886;DHT22;36669;51.428;21.162;2022-12-20T16:21:34;2.90;99.90
44886;DHT22;36669;51.428;21.162;2022-12-20T16:24:01;2.90;99.90
44886;DHT22;36669;51.428;21.162;2022-12-20T16:26:27;2.90;99.90
44886;DHT22;36669;51.428;21.162;2022-12-20T16:28:54;2.90;99.90
44886;DHT22;36669;51.428;21.162;2022-12-20T16:33:49;2.90;99.90
44886;DHT22;36669;51.428;21.162;2022-12-20T16:36:15;2.90;99.90
44886;DHT22;36669;51.428;21.162;2022-12-20T16:38:41;2.90;99.90
44886;DHT22;36669;51.428;21.162;2022-12-20T16:41:33;2.90;99.90
44886;DHT22;36669;51.428;21.162;2022-12-20T16:44:01;2.90;99.90
44886;DHT22;36669;51.428;21.162;2022-12-20T16:46:28;3.00;99.90
44886;DHT22;36669;51.428;21.162;2022-12-20T16:48:56;3.00;99.90
44886;DHT22;36669;51.428;21.162;2022-12-20T16:51:32;3.00;99.90
44886;DHT22;36669;51.428;21.162;2022-12-20T16:54:04;3.00;99.90
44886;DHT22;36669;51.428;21.162;2022-12-20T16:56:30;3.00;99.90
44886;DHT22;36669;51.428;21.162;2022-12-20T16:58:56;3.00;99.90
44886;DHT22;36669;51.428;21.162;2022-12-20T17:01:33;3.10;99.90
44886;DHT22;36669;51.428;21.162;2022-12-20T17:04:00;3.00;99.90
44886;DHT22;36669;51.428;21.162;2022-12-20T17:06:26;3.10;99.90
44886;DHT22;36669;51.428;21.162;2022-12-20T17:08:52;3.00;99.90
44886;DHT22;36669;51.428;21.162;2022-12-20T17:11:18;3.00;99.90
44886;DHT22;36669;51.428;21.162;2022-12-20T17:13:46;3.00;99.90
44886;DHT22;36669;51.428;21.162;2022-12-20T17:16:13;3.00;99.90
44886;DHT22;36669;51.428;21.162;2022-12-20T17:18:44;3.10;99.90
44886;DHT22;36669;51.428;21.162;2022-12-20T17:21:32;3.10;99.90
44886;DHT22;36669;51.428;21.162;2022-12-20T17:23:58;3.10;99.90
44886;DHT22;36669;51.428;21.162;2022-12-20T17:26:26;3.20;99.90
44886;DHT22;36669;51.428;21.162;2022-12-20T17:28:54;3.20;99.90
44886;DHT22;36669;51.428;21.162;2022-12-20T17:31:36;3.20;99.90
44886;DHT22;36669;51.428;21.162;2022-12-20T17:34:05;3.10;99.90
44886;DHT22;36669;51.428;21.162;2022-12-20T17:36:31;3.10;99.90
44886;DHT22;36669;51.428;21.162;2022-12-20T17:38:57;3.10;99.90
44886;DHT22;36669;51.428;21.162;2022-12-20T17:41:26;3.10;99.90
44886;DHT22;36669;51.428;21.162;2022-12-20T17:43:53;3.10;99.90
44886;DHT22;36669;51.428;21.162;2022-12-20T17:46:20;3.10;99.90
44886;DHT22;36669;51.428;21.162;2022-12-20T17:48:46;3.20;99.90
44886;DHT22;36669;51.428;21.162;2022-12-20T17:53:43;3.10;99.90
44886;DHT22;36669;51.428;21.162;2022-12-20T17:56:12;3.20;99.90
44886;DHT22;36669;51.428;21.162;2022-12-20T17:58:38;3.10;99.90
44886;DHT22;36669;51.428;21.162;2022-12-20T18:01:04;3.10;99.90
44886;DHT22;36669;51.428;21.162;2022-12-20T18:03:29;3.10;99.90
44886;DHT22;36669;51.428;21.162;2022-12-20T18:05:55;3.20;99.90
44886;DHT22;36669;51.428;21.162;2022-12-20T18:08:21;3.20;99.90
44886;DHT22;36669;51.428;21.162;2022-12-20T18:10:46;3.10;99.90
44886;DHT22;36669;51.428;21.162;2022-12-20T18:13:12;3.10;99.90
44886;DHT22;36669;51.428;21.162;2022-12-20T18:15:38;3.10;99.90
44886;DHT22;36669;51.428;21.162;2022-12-20T18:18:03;3.10;99.90